Meteo Giornale » Osservazioni meteo Stati Uniti (USA) » Montague Siskiyou
ore: 22:53 - Osservazioni Meteo Montague Siskiyou
Lat. 41° 46' N Lon. 122° 28' W Alt. 807 metri s.l.m.
16 °C
Coperto
Temp. 24 Ore
8 °C
24 °C
Sud/Sud-Ovest
14.8 Km/h
Dew point 6 °C
Umidità 51 %
Visibilità 10 Km
Il sole sorge alle ore 06:36
Il sole tramonta alle ore 19:43
| Data e Ora | Cielo e Fenomeni | T °C | DP °C | Um. % | Pres. hPa | Vis. km | Vento km/h | |
|---|---|---|---|---|---|---|---|---|
| Oggi h: 22:53 | Coperto | 16 | 6 | 51 | 1014 | 10 | S/SO 14.8 | |
| Oggi h: 21:53 | Coperto | 16 | 5 | 47 | 1014 | 10 | S 11.1 | |
| Oggi h: 20:53 | Coperto | 17 | 5 | 45 | 1013 | 10 | S 13 | |
| Oggi h: 19:53 | Molto Nuvoloso | 17 | 4 | 41 | 1012 | 10 | S 14.8 | |
| Oggi h: 18:53 | Sereno | 19 | 4 | 37 | 1011 | 10 | S 27.8 | |
| Oggi h: 17:53 | Molto Nuvoloso | 22 | 4 | 30 | 1011 | 10 | S 31.5 | |
| Oggi h: 16:53 | Sereno | 22 | 4 | 30 | 1011 | 10 | S 35.2 | |
| Oggi h: 15:53 | Poco Nuvoloso | 22 | 4 | 30 | 1011 | 10 | S 33.3 | |
| Oggi h: 14:53 | Sereno | 23 | 4 | 28 | 1011 | 10 | S 25.9 | |
| Oggi h: 13:53 | Sereno | 24 | 2 | 23 | 1011 | 10 | S/SO 13 | |
| Oggi h: 12:53 | Sereno | 23 | 1 | 23 | 1011 | 10 | S/SE 16.7 | |
| Oggi h: 11:53 | Sereno | 23 | 2 | 25 | 1012 | 10 | S 22.2 | |
| Oggi h: 10:53 | Sereno | 21 | 3 | 30 | 1012 | 10 | N 0 | |
| Oggi h: 09:53 | Sereno | 19 | 2 | 32 | 1012 | 10 | N 0 | |
| Oggi h: 08:53 | Sereno | 17 | 2 | 36 | 1012 | 10 | N/NE 9.3 | |
| Oggi h: 07:53 | Sereno | 12 | 1 | 46 | 1012 | 10 | NE 9.3 | |
| Oggi h: 06:53 | Sereno | 8 | 0 | 56 | 1012 | 10 | N 0 | |
| Oggi h: 05:53 | Sereno | 11 | -1 | 43 | 1012 | 10 | N 0 | |
| Oggi h: 04:53 | Sereno | 13 | 1 | 43 | 1012 | 10 | N 5.5 | |
| Oggi h: 03:53 | Sereno | 16 | -2 | 29 | 1011 | 10 | N 11.1 | |
| Oggi h: 02:53 | Sereno | 12 | -3 | 34 | 1011 | 10 | N 0 | |
| Oggi h: 01:53 | Sereno | 13 | -2 | 35 | 1011 | 10 | N 0 | |
| Oggi h: 00:53 | Sereno | 14 | -3 | 30 | 1011 | 10 | E 13 | |
| Ieri h: 23:53 | Sereno | 16 | -2 | 29 | 1011 | 10 | N 5.5 | |



